Terminal Aerodrome Forecast
Issued by NWS

Current Version | Previous Version | Text Only | Print | Product List | Glossary Off
Versions: 1 2 3 4 5 6 7 8 9 10 11 12 13 14 15 16 17 18 19 20 21 22 23 24 25 26

680
FTUS41 KPBZ 290637 AAA
TAFMGW
TAF AMD
KMGW 290637Z 2907/3006 00000KT P6SM BKN005
     FM290900 00000KT 2SM BR OVC008
     FM291400 VRB03KT 5SM BR OVC008
     FM291800 28006KT P6SM BKN025=

USA.gov is the U.S. government's official web portal to all federal, state and local government web resources and services.